Inicio METAR Ruta Wind Satelite

Informe Meteorológico

Fecha: 2023/03/22 03:47:03 Local
2023.03.22 08:47 UTC


Operación:VFR
SKCC 220800Z NIL =

SKCC 220400Z VRB02KT 9999 SCT015 BKN050 25/21 Q1016 RMK A3002
SKCC 220300Z 24005KT 9999 SCT015 BKN050 24/22 Q1016 REDZ RMK A3001
SKCC 220200Z 32004KT 9999 SCT017 BKN050 24/20 Q1016 RMK A3000
SKCC 220100Z 34007KT 9999 SCT017 BKN050 25/22 Q1015 RMK A2998
SKCC 220000Z 34004KT 9999 SCT017 BKN050 26/21 Q1014 RMK A2994

2023/03/22 06:42
TAF SKCC 220430Z 2206/2306 VRB02KT 9999 SCT015
TEMPO 2210/2214 4000 BCFG SCT010
BECMG 2215/2217 35010KT SCT020
BECMG 2301/2303 VRB02KT SCT015 TX31/2218Z TN22/2211Z